sensor_id;sensor_type;location;lat;lon;timestamp;P1;durP1;ratioP1;P2;durP2;ratioP2
55758;SDS011;41678;52.126;20.664;2022-11-23T00:06:39;51.38;;;16.67;;
55758;SDS011;41678;52.126;20.664;2022-11-23T00:11:59;47.30;;;15.30;;
55758;SDS011;41678;52.126;20.664;2022-11-23T00:17:19;55.53;;;16.27;;
55758;SDS011;41678;52.126;20.664;2022-11-23T00:22:38;60.83;;;18.60;;
55758;SDS011;41678;52.126;20.664;2022-11-23T00:27:57;49.55;;;14.27;;
55758;SDS011;41678;52.126;20.664;2022-11-23T00:33:17;65.53;;;18.80;;
55758;SDS011;41678;52.126;20.664;2022-11-23T00:38:37;57.97;;;20.95;;
55758;SDS011;41678;52.126;20.664;2022-11-23T00:43:57;50.20;;;16.90;;
55758;SDS011;41678;52.126;20.664;2022-11-23T00:49:16;53.60;;;16.83;;
55758;SDS011;41678;52.126;20.664;2022-11-23T00:54:36;64.82;;;17.52;;
55758;SDS011;41678;52.126;20.664;2022-11-23T00:59:56;70.80;;;19.58;;
55758;SDS011;41678;52.126;20.664;2022-11-23T01:05:17;23.08;;;10.77;;
55758;SDS011;41678;52.126;20.664;2022-11-23T01:10:37;35.10;;;13.15;;
55758;SDS011;41678;52.126;20.664;2022-11-23T01:15:58;50.03;;;14.20;;
55758;SDS011;41678;52.126;20.664;2022-11-23T01:21:18;48.75;;;15.15;;
55758;SDS011;41678;52.126;20.664;2022-11-23T01:26:37;41.40;;;14.35;;
55758;SDS011;41678;52.126;20.664;2022-11-23T01:31:58;49.97;;;14.63;;
55758;SDS011;41678;52.126;20.664;2022-11-23T01:37:17;39.20;;;14.35;;
55758;SDS011;41678;52.126;20.664;2022-11-23T01:48:19;37.22;;;11.20;;
55758;SDS011;41678;52.126;20.664;2022-11-23T01:53:43;54.47;;;17.00;;
55758;SDS011;41678;52.126;20.664;2022-11-23T01:59:06;21.27;;;7.40;;
55758;SDS011;41678;52.126;20.664;2022-11-23T02:04:32;34.58;;;13.15;;
55758;SDS011;41678;52.126;20.664;2022-11-23T02:09:54;32.95;;;14.38;;
55758;SDS011;41678;52.126;20.664;2022-11-23T02:15:14;13.85;;;6.05;;
55758;SDS011;41678;52.126;20.664;2022-11-23T02:20:34;43.70;;;13.50;;
55758;SDS011;41678;52.126;20.664;2022-11-23T02:25:56;28.77;;;11.48;;
55758;SDS011;41678;52.126;20.664;2022-11-23T02:31:18;40.67;;;14.52;;
55758;SDS011;41678;52.126;20.664;2022-11-23T02:36:42;34.00;;;12.35;;
55758;SDS011;41678;52.126;20.664;2022-11-23T02:42:06;29.60;;;10.43;;
55758;SDS011;41678;52.126;20.664;2022-11-23T02:47:26;38.70;;;11.85;;
55758;SDS011;41678;52.126;20.664;2022-11-23T02:52:46;34.40;;;11.63;;
55758;SDS011;41678;52.126;20.664;2022-11-23T02:58:08;42.00;;;9.90;;
55758;SDS011;41678;52.126;20.664;2022-11-23T03:03:28;33.03;;;12.20;;
55758;SDS011;41678;52.126;20.664;2022-11-23T03:08:48;40.30;;;11.93;;
55758;SDS011;41678;52.126;20.664;2022-11-23T03:14:09;22.47;;;7.53;;
55758;SDS011;41678;52.126;20.664;2022-11-23T03:19:36;30.73;;;10.68;;
55758;SDS011;41678;52.126;20.664;2022-11-23T03:24:56;24.83;;;10.98;;
55758;SDS011;41678;52.126;20.664;2022-11-23T03:30:17;34.88;;;12.32;;
55758;SDS011;41678;52.126;20.664;2022-11-23T03:35:37;31.83;;;12.13;;
55758;SDS011;41678;52.126;20.664;2022-11-23T03:41:16;46.05;;;14.95;;
55758;SDS011;41678;52.126;20.664;2022-11-23T03:46:43;37.70;;;11.90;;
55758;SDS011;41678;52.126;20.664;2022-11-23T03:52:03;33.38;;;10.95;;
55758;SDS011;41678;52.126;20.664;2022-11-23T03:57:23;32.80;;;9.68;;
55758;SDS011;41678;52.126;20.664;2022-11-23T04:02:42;38.05;;;10.27;;
55758;SDS011;41678;52.126;20.664;2022-11-23T04:08:22;35.70;;;10.38;;
55758;SDS011;41678;52.126;20.664;2022-11-23T04:13:43;31.83;;;10.60;;
55758;SDS011;41678;52.126;20.664;2022-11-23T04:19:03;37.80;;;9.32;;
55758;SDS011;41678;52.126;20.664;2022-11-23T04:24:22;32.85;;;12.10;;
55758;SDS011;41678;52.126;20.664;2022-11-23T04:29:45;37.72;;;10.50;;
55758;SDS011;41678;52.126;20.664;2022-11-23T04:35:05;45.63;;;12.60;;
55758;SDS011;41678;52.126;20.664;2022-11-23T04:40:29;22.40;;;7.72;;
55758;SDS011;41678;52.126;20.664;2022-11-23T04:45:53;38.92;;;11.95;;
55758;SDS011;41678;52.126;20.664;2022-11-23T04:51:20;26.35;;;9.77;;
55758;SDS011;41678;52.126;20.664;2022-11-23T04:56:40;29.77;;;7.38;;
55758;SDS011;41678;52.126;20.664;2022-11-23T05:02:00;24.73;;;8.85;;
55758;SDS011;41678;52.126;20.664;2022-11-23T05:07:43;22.83;;;9.15;;
55758;SDS011;41678;52.126;20.664;2022-11-23T05:13:03;23.63;;;8.35;;
55758;SDS011;41678;52.126;20.664;2022-11-23T05:18:23;24.33;;;8.45;;
55758;SDS011;41678;52.126;20.664;2022-11-23T05:23:43;24.88;;;9.63;;
55758;SDS011;41678;52.126;20.664;2022-11-23T05:29:03;30.55;;;10.25;;
55758;SDS011;41678;52.126;20.664;2022-11-23T05:34:23;21.00;;;8.43;;
55758;SDS011;41678;52.126;20.664;2022-11-23T05:39:44;22.90;;;8.48;;
55758;SDS011;41678;52.126;20.664;2022-11-23T05:45:05;24.43;;;8.30;;
55758;SDS011;41678;52.126;20.664;2022-11-23T05:50:32;40.63;;;9.82;;
55758;SDS011;41678;52.126;20.664;2022-11-23T05:56:30;25.95;;;9.88;;
55758;SDS011;41678;52.126;20.664;2022-11-23T06:02:16;26.10;;;8.90;;
55758;SDS011;41678;52.126;20.664;2022-11-23T06:07:37;23.27;;;8.30;;
55758;SDS011;41678;52.126;20.664;2022-11-23T06:13:04;32.08;;;9.80;;
55758;SDS011;41678;52.126;20.664;2022-11-23T06:18:25;30.00;;;9.97;;
55758;SDS011;41678;52.126;20.664;2022-11-23T06:23:47;25.77;;;8.27;;
55758;SDS011;41678;52.126;20.664;2022-11-23T06:29:08;24.23;;;9.18;;
55758;SDS011;41678;52.126;20.664;2022-11-23T06:34:28;22.02;;;8.57;;
55758;SDS011;41678;52.126;20.664;2022-11-23T06:39:49;25.42;;;8.43;;
55758;SDS011;41678;52.126;20.664;2022-11-23T06:45:09;23.92;;;9.13;;
55758;SDS011;41678;52.126;20.664;2022-11-23T06:50:29;24.77;;;8.73;;
55758;SDS011;41678;52.126;20.664;2022-11-23T06:55:49;26.50;;;8.75;;
55758;SDS011;41678;52.126;20.664;2022-11-23T07:06:46;16.23;;;5.82;;
55758;SDS011;41678;52.126;20.664;2022-11-23T07:12:17;23.50;;;8.07;;
55758;SDS011;41678;52.126;20.664;2022-11-23T07:17:38;24.17;;;9.18;;
55758;SDS011;41678;52.126;20.664;2022-11-23T07:23:09;33.53;;;11.77;;
55758;SDS011;41678;52.126;20.664;2022-11-23T07:28:32;34.58;;;10.25;;
55758;SDS011;41678;52.126;20.664;2022-11-23T07:33:51;40.28;;;11.95;;
55758;SDS011;41678;52.126;20.664;2022-11-23T07:39:12;24.15;;;8.40;;
55758;SDS011;41678;52.126;20.664;2022-11-23T07:44:32;20.05;;;8.05;;
55758;SDS011;41678;52.126;20.664;2022-11-23T07:49:52;17.23;;;8.07;;
55758;SDS011;41678;52.126;20.664;2022-11-23T07:55:11;21.65;;;7.80;;
55758;SDS011;41678;52.126;20.664;2022-11-23T08:00:31;20.60;;;8.43;;
55758;SDS011;41678;52.126;20.664;2022-11-23T08:05:50;28.77;;;7.88;;
55758;SDS011;41678;52.126;20.664;2022-11-23T08:11:10;22.13;;;8.75;;
55758;SDS011;41678;52.126;20.664;2022-11-23T08:16:33;24.67;;;8.10;;
55758;SDS011;41678;52.126;20.664;2022-11-23T08:21:52;14.82;;;6.80;;
55758;SDS011;41678;52.126;20.664;2022-11-23T08:27:12;13.60;;;4.93;;
55758;SDS011;41678;52.126;20.664;2022-11-23T08:32:32;19.17;;;8.25;;
55758;SDS011;41678;52.126;20.664;2022-11-23T08:37:51;23.35;;;7.93;;
55758;SDS011;41678;52.126;20.664;2022-11-23T08:43:11;19.38;;;8.60;;
55758;SDS011;41678;52.126;20.664;2022-11-23T08:48:30;22.23;;;7.60;;
55758;SDS011;41678;52.126;20.664;2022-11-23T08:53:50;7.85;;;4.03;;
55758;SDS011;41678;52.126;20.664;2022-11-23T08:59:10;24.10;;;8.55;;
55758;SDS011;41678;52.126;20.664;2022-11-23T09:04:30;23.90;;;7.90;;
55758;SDS011;41678;52.126;20.664;2022-11-23T09:09:50;19.75;;;8.02;;
55758;SDS011;41678;52.126;20.664;2022-11-23T09:15:09;20.40;;;7.65;;
55758;SDS011;41678;52.126;20.664;2022-11-23T09:20:29;19.92;;;7.40;;
55758;SDS011;41678;52.126;20.664;2022-11-23T09:25:48;18.98;;;8.48;;
55758;SDS011;41678;52.126;20.664;2022-11-23T09:31:08;21.05;;;8.07;;
55758;SDS011;41678;52.126;20.664;2022-11-23T09:36:28;21.80;;;9.27;;
55758;SDS011;41678;52.126;20.664;2022-11-23T09:53:04;23.67;;;8.18;;
55758;SDS011;41678;52.126;20.664;2022-11-23T09:58:34;20.52;;;8.68;;
55758;SDS011;41678;52.126;20.664;2022-11-23T10:03:57;19.48;;;8.40;;
55758;SDS011;41678;52.126;20.664;2022-11-23T10:25:43;24.73;;;9.57;;
55758;SDS011;41678;52.126;20.664;2022-11-23T10:31:14;19.23;;;9.02;;
55758;SDS011;41678;52.126;20.664;2022-11-23T10:36:34;26.85;;;8.25;;
55758;SDS011;41678;52.126;20.664;2022-11-23T10:41:56;28.58;;;10.65;;
55758;SDS011;41678;52.126;20.664;2022-11-23T10:47:36;25.38;;;9.85;;
55758;SDS011;41678;52.126;20.664;2022-11-23T10:52:59;28.92;;;11.60;;
55758;SDS011;41678;52.126;20.664;2022-11-23T10:58:33;25.23;;;8.63;;
55758;SDS011;41678;52.126;20.664;2022-11-23T11:04:02;14.80;;;7.22;;
55758;SDS011;41678;52.126;20.664;2022-11-23T11:09:22;22.27;;;8.63;;
55758;SDS011;41678;52.126;20.664;2022-11-23T11:14:56;25.52;;;10.10;;
55758;SDS011;41678;52.126;20.664;2022-11-23T11:20:35;14.80;;;6.45;;
55758;SDS011;41678;52.126;20.664;2022-11-23T11:26:03;29.23;;;9.80;;
55758;SDS011;41678;52.126;20.664;2022-11-23T11:31:56;20.25;;;7.85;;
55758;SDS011;41678;52.126;20.664;2022-11-23T11:37:31;19.10;;;8.07;;
55758;SDS011;41678;52.126;20.664;2022-11-23T11:48:39;18.65;;;7.10;;
55758;SDS011;41678;52.126;20.664;2022-11-23T11:59:40;14.65;;;6.38;;
55758;SDS011;41678;52.126;20.664;2022-11-23T12:21:59;20.40;;;7.82;;
55758;SDS011;41678;52.126;20.664;2022-11-23T12:55:53;26.40;;;9.52;;
55758;SDS011;41678;52.126;20.664;2022-11-23T13:01:22;23.27;;;10.45;;
55758;SDS011;41678;52.126;20.664;2022-11-23T13:06:56;26.05;;;12.15;;
55758;SDS011;41678;52.126;20.664;2022-11-23T13:18:15;28.35;;;11.40;;
55758;SDS011;41678;52.126;20.664;2022-11-23T13:23:45;22.95;;;11.23;;
55758;SDS011;41678;52.126;20.664;2022-11-23T13:29:45;22.90;;;8.75;;
55758;SDS011;41678;52.126;20.664;2022-11-23T13:40:33;20.90;;;7.60;;
55758;SDS011;41678;52.126;20.664;2022-11-23T13:52:02;24.15;;;10.10;;
55758;SDS011;41678;52.126;20.664;2022-11-23T13:57:44;24.33;;;8.63;;
55758;SDS011;41678;52.126;20.664;2022-11-23T14:14:48;50.88;;;10.90;;
55758;SDS011;41678;52.126;20.664;2022-11-23T14:43:14;20.63;;;10.80;;
55758;SDS011;41678;52.126;20.664;2022-11-23T14:48:37;30.88;;;12.73;;
55758;SDS011;41678;52.126;20.664;2022-11-23T14:53:58;29.77;;;11.85;;
55758;SDS011;41678;52.126;20.664;2022-11-23T15:10:59;35.47;;;14.05;;
55758;SDS011;41678;52.126;20.664;2022-11-23T15:16:24;36.53;;;11.27;;
55758;SDS011;41678;52.126;20.664;2022-11-23T15:21:44;31.85;;;15.00;;
55758;SDS011;41678;52.126;20.664;2022-11-23T15:27:05;45.08;;;15.32;;
55758;SDS011;41678;52.126;20.664;2022-11-23T15:32:28;47.80;;;12.05;;
55758;SDS011;41678;52.126;20.664;2022-11-23T15:37:49;36.95;;;13.07;;
55758;SDS011;41678;52.126;20.664;2022-11-23T15:43:13;59.97;;;15.85;;
55758;SDS011;41678;52.126;20.664;2022-11-23T15:48:35;34.95;;;13.07;;
55758;SDS011;41678;52.126;20.664;2022-11-23T15:53:57;44.83;;;16.70;;
55758;SDS011;41678;52.126;20.664;2022-11-23T16:04:41;36.78;;;14.80;;
55758;SDS011;41678;52.126;20.664;2022-11-23T16:20:57;27.63;;;13.63;;
55758;SDS011;41678;52.126;20.664;2022-11-23T16:26:20;40.53;;;14.77;;
55758;SDS011;41678;52.126;20.664;2022-11-23T16:31:55;43.78;;;16.63;;
55758;SDS011;41678;52.126;20.664;2022-11-23T16:37:19;51.05;;;17.70;;
55758;SDS011;41678;52.126;20.664;2022-11-23T16:42:39;30.33;;;14.52;;
55758;SDS011;41678;52.126;20.664;2022-11-23T16:48:00;43.33;;;16.80;;
55758;SDS011;41678;52.126;20.664;2022-11-23T16:53:20;32.63;;;16.35;;
55758;SDS011;41678;52.126;20.664;2022-11-23T16:58:40;40.80;;;15.27;;
55758;SDS011;41678;52.126;20.664;2022-11-23T17:04:00;28.60;;;14.93;;
55758;SDS011;41678;52.126;20.664;2022-11-23T17:09:20;41.85;;;15.93;;
55758;SDS011;41678;52.126;20.664;2022-11-23T17:14:39;37.00;;;14.35;;
55758;SDS011;41678;52.126;20.664;2022-11-23T17:20:13;33.65;;;13.10;;
55758;SDS011;41678;52.126;20.664;2022-11-23T17:25:33;29.38;;;11.85;;
55758;SDS011;41678;52.126;20.664;2022-11-23T17:30:54;47.58;;;13.38;;
55758;SDS011;41678;52.126;20.664;2022-11-23T17:36:14;38.08;;;15.00;;
55758;SDS011;41678;52.126;20.664;2022-11-23T17:41:33;30.35;;;12.70;;
55758;SDS011;41678;52.126;20.664;2022-11-23T17:46:53;43.38;;;15.80;;
55758;SDS011;41678;52.126;20.664;2022-11-23T17:52:16;38.38;;;15.73;;
55758;SDS011;41678;52.126;20.664;2022-11-23T17:57:36;41.35;;;16.42;;
55758;SDS011;41678;52.126;20.664;2022-11-23T18:02:57;45.42;;;16.52;;
55758;SDS011;41678;52.126;20.664;2022-11-23T18:08:17;43.78;;;16.48;;
55758;SDS011;41678;52.126;20.664;2022-11-23T18:13:37;35.70;;;14.57;;
55758;SDS011;41678;52.126;20.664;2022-11-23T18:18:57;31.17;;;13.05;;
55758;SDS011;41678;52.126;20.664;2022-11-23T18:24:17;28.17;;;11.07;;
55758;SDS011;41678;52.126;20.664;2022-11-23T18:29:36;39.90;;;14.55;;
55758;SDS011;41678;52.126;20.664;2022-11-23T18:34:58;35.03;;;12.43;;
55758;SDS011;41678;52.126;20.664;2022-11-23T18:40:18;41.35;;;13.02;;
55758;SDS011;41678;52.126;20.664;2022-11-23T18:45:37;36.55;;;14.95;;
55758;SDS011;41678;52.126;20.664;2022-11-23T18:50:57;22.80;;;10.88;;
55758;SDS011;41678;52.126;20.664;2022-11-23T18:56:17;32.08;;;13.93;;
55758;SDS011;41678;52.126;20.664;2022-11-23T19:01:37;39.50;;;12.05;;
55758;SDS011;41678;52.126;20.664;2022-11-23T19:06:57;39.45;;;13.63;;
55758;SDS011;41678;52.126;20.664;2022-11-23T19:12:17;29.35;;;11.07;;
55758;SDS011;41678;52.126;20.664;2022-11-23T19:17:36;36.85;;;14.73;;
55758;SDS011;41678;52.126;20.664;2022-11-23T19:22:56;26.92;;;11.82;;
55758;SDS011;41678;52.126;20.664;2022-11-23T19:28:16;33.85;;;13.70;;
55758;SDS011;41678;52.126;20.664;2022-11-23T19:33:35;61.67;;;17.38;;
55758;SDS011;41678;52.126;20.664;2022-11-23T19:38:55;50.75;;;16.42;;
55758;SDS011;41678;52.126;20.664;2022-11-23T19:44:15;51.88;;;19.13;;
55758;SDS011;41678;52.126;20.664;2022-11-23T19:49:35;49.53;;;16.45;;
55758;SDS011;41678;52.126;20.664;2022-11-23T19:54:55;39.83;;;15.23;;
55758;SDS011;41678;52.126;20.664;2022-11-23T20:00:14;47.95;;;17.75;;
55758;SDS011;41678;52.126;20.664;2022-11-23T20:05:38;42.53;;;16.85;;
55758;SDS011;41678;52.126;20.664;2022-11-23T20:11:11;31.20;;;12.32;;
55758;SDS011;41678;52.126;20.664;2022-11-23T20:16:32;43.33;;;18.15;;
55758;SDS011;41678;52.126;20.664;2022-11-23T20:21:52;43.65;;;16.30;;
55758;SDS011;41678;52.126;20.664;2022-11-23T20:27:12;35.65;;;14.07;;
55758;SDS011;41678;52.126;20.664;2022-11-23T20:32:32;29.00;;;12.25;;
55758;SDS011;41678;52.126;20.664;2022-11-23T20:37:51;38.72;;;14.50;;
55758;SDS011;41678;52.126;20.664;2022-11-23T20:43:11;35.53;;;15.00;;
55758;SDS011;41678;52.126;20.664;2022-11-23T20:48:31;30.42;;;11.80;;
55758;SDS011;41678;52.126;20.664;2022-11-23T20:59:18;40.35;;;14.63;;
55758;SDS011;41678;52.126;20.664;2022-11-23T21:04:38;32.35;;;12.77;;
55758;SDS011;41678;52.126;20.664;2022-11-23T21:09:58;38.45;;;13.73;;
55758;SDS011;41678;52.126;20.664;2022-11-23T21:15:17;42.88;;;15.57;;
55758;SDS011;41678;52.126;20.664;2022-11-23T21:20:37;36.00;;;13.65;;
55758;SDS011;41678;52.126;20.664;2022-11-23T21:26:04;51.33;;;16.10;;
55758;SDS011;41678;52.126;20.664;2022-11-23T21:31:25;37.40;;;14.27;;
55758;SDS011;41678;52.126;20.664;2022-11-23T21:36:45;42.33;;;13.20;;
55758;SDS011;41678;52.126;20.664;2022-11-23T21:42:05;39.10;;;16.33;;
55758;SDS011;41678;52.126;20.664;2022-11-23T21:47:25;32.08;;;15.65;;
55758;SDS011;41678;52.126;20.664;2022-11-23T21:52:46;26.50;;;13.30;;
55758;SDS011;41678;52.126;20.664;2022-11-23T21:58:05;41.70;;;14.38;;
55758;SDS011;41678;52.126;20.664;2022-11-23T22:03:25;28.30;;;13.38;;
55758;SDS011;41678;52.126;20.664;2022-11-23T22:09:03;33.17;;;14.55;;
55758;SDS011;41678;52.126;20.664;2022-11-23T22:14:26;28.65;;;11.25;;
55758;SDS011;41678;52.126;20.664;2022-11-23T22:19:46;36.80;;;13.38;;
55758;SDS011;41678;52.126;20.664;2022-11-23T22:25:06;23.92;;;11.90;;
55758;SDS011;41678;52.126;20.664;2022-11-23T22:30:26;47.60;;;17.20;;
55758;SDS011;41678;52.126;20.664;2022-11-23T22:35:46;39.97;;;15.30;;
55758;SDS011;41678;52.126;20.664;2022-11-23T22:41:09;45.97;;;14.45;;
55758;SDS011;41678;52.126;20.664;2022-11-23T22:46:31;42.35;;;15.38;;
55758;SDS011;41678;52.126;20.664;2022-11-23T22:51:51;38.78;;;16.33;;
55758;SDS011;41678;52.126;20.664;2022-11-23T22:57:10;40.13;;;16.63;;
55758;SDS011;41678;52.126;20.664;2022-11-23T23:02:30;32.92;;;16.00;;
55758;SDS011;41678;52.126;20.664;2022-11-23T23:07:50;25.35;;;10.20;;
55758;SDS011;41678;52.126;20.664;2022-11-23T23:13:10;40.00;;;14.80;;
55758;SDS011;41678;52.126;20.664;2022-11-23T23:18:30;35.10;;;14.73;;
55758;SDS011;41678;52.126;20.664;2022-11-23T23:23:50;31.42;;;12.20;;
55758;SDS011;41678;52.126;20.664;2022-11-23T23:29:12;33.42;;;13.20;;
55758;SDS011;41678;52.126;20.664;2022-11-23T23:34:31;41.45;;;12.88;;
55758;SDS011;41678;52.126;20.664;2022-11-23T23:39:51;36.45;;;13.68;;
55758;SDS011;41678;52.126;20.664;2022-11-23T23:45:11;34.50;;;13.77;;
55758;SDS011;41678;52.126;20.664;2022-11-23T23:50:31;34.67;;;12.52;;
55758;SDS011;41678;52.126;20.664;2022-11-23T23:55:54;35.72;;;12.73;;
